createdAt,value
2022-12-11T00:00:53.215Z,95.80
2022-12-11T00:05:54.914Z,96.57
2022-12-11T00:10:58.123Z,97.11
2022-12-11T00:15:59.991Z,96.89
2022-12-11T00:21:05.947Z,97.43
2022-12-11T00:26:14.417Z,97.82
2022-12-11T00:31:19.061Z,98.03
2022-12-11T00:36:23.806Z,98.05
2022-12-11T00:41:25.511Z,98.18
2022-12-11T00:46:27.219Z,97.97
2022-12-11T00:51:29.411Z,98.14
2022-12-11T00:56:31.068Z,96.94
2022-12-11T01:01:32.861Z,98.25
2022-12-11T01:06:34.725Z,98.59
2022-12-11T01:11:36.468Z,97.80
2022-12-11T01:16:38.295Z,98.17
2022-12-11T01:21:41.205Z,97.80
2022-12-11T01:26:42.877Z,96.64
2022-12-11T01:31:44.583Z,97.57
2022-12-11T01:36:46.266Z,97.51
2022-12-11T01:41:47.929Z,97.10
2022-12-11T01:46:49.612Z,96.11
2022-12-11T01:51:56.925Z,96.64
2022-12-11T01:57:03.017Z,96.40
2022-12-11T02:02:09.411Z,95.69
2022-12-11T02:07:11.293Z,95.84
2022-12-11T02:12:28.219Z,94.89
2022-12-11T02:17:38.626Z,95.40
2022-12-11T02:22:58.711Z,95.26
2022-12-11T02:28:32.325Z,94.74
2022-12-11T02:33:43.981Z,94.84
2022-12-11T02:38:50.756Z,94.81
2022-12-11T02:43:55.312Z,95.00
2022-12-11T02:48:58.067Z,95.00
2022-12-11T02:54:00.216Z,95.78
2022-12-11T02:59:08.667Z,95.35
2022-12-11T03:04:10.363Z,94.51
2022-12-11T03:09:12.372Z,94.89
2022-12-11T03:14:14.461Z,94.05
2022-12-11T03:19:32.001Z,93.60
2022-12-11T03:24:38.057Z,93.68
2022-12-11T03:29:48.814Z,93.97
2022-12-11T03:35:23.004Z,93.67
2022-12-11T03:40:26.024Z,93.43
2022-12-11T03:45:29.551Z,92.86
2022-12-11T03:50:34.599Z,92.85
2022-12-11T03:55:39.544Z,91.71
2022-12-11T04:00:41.292Z,92.26
2022-12-11T04:05:46.222Z,91.18
2022-12-11T04:10:48.258Z,90.49
2022-12-11T04:15:49.963Z,92.43
2022-12-11T04:21:14.938Z,92.98
2022-12-11T04:26:19.997Z,92.68
2022-12-11T04:31:22.696Z,93.39
2022-12-11T04:36:24.742Z,92.65
2022-12-11T04:41:26.407Z,92.69
2022-12-11T04:46:28.127Z,92.34
2022-12-11T04:51:29.984Z,90.52
2022-12-11T04:56:31.643Z,92.91
2022-12-11T05:01:33.332Z,92.19
2022-12-11T05:06:35.003Z,92.33
2022-12-11T05:11:36.738Z,91.93
2022-12-11T05:16:38.586Z,92.76
2022-12-11T05:21:40.339Z,96.33
2022-12-11T05:26:42.133Z,99.35
2022-12-11T05:31:43.911Z,100.00
2022-12-11T05:36:45.591Z,100.00
2022-12-11T05:41:47.250Z,100.00
2022-12-11T05:46:49.787Z,100.00
2022-12-11T05:51:51.815Z,100.00
2022-12-11T05:56:53.504Z,100.00
2022-12-11T06:01:55.330Z,100.00
2022-12-11T06:06:57.039Z,100.00
2022-12-11T06:11:58.718Z,100.00
2022-12-11T06:17:01.586Z,100.00
2022-12-11T06:22:03.269Z,99.37
2022-12-11T06:27:05.003Z,99.19
2022-12-11T06:32:07.017Z,98.63
2022-12-11T06:37:08.695Z,98.48
2022-12-11T06:42:10.354Z,97.34
2022-12-11T06:47:12.042Z,96.83
2022-12-11T06:52:18.196Z,96.09
2022-12-11T06:57:20.403Z,95.96
2022-12-11T07:02:22.603Z,95.24
2022-12-11T07:07:24.379Z,96.14
2022-12-11T07:12:26.093Z,95.57
2022-12-11T07:17:29.610Z,95.03
2022-12-11T07:22:31.547Z,94.68
2022-12-11T07:27:33.305Z,93.48
2022-12-11T07:32:34.998Z,92.87
2022-12-11T07:37:36.711Z,92.00
2022-12-11T07:42:41.478Z,91.37
2022-12-11T07:47:47.546Z,91.39
2022-12-11T07:52:49.219Z,91.58
2022-12-11T07:57:50.877Z,90.98
2022-12-11T08:02:52.633Z,91.19
2022-12-11T08:07:54.443Z,91.51
2022-12-11T08:12:56.142Z,90.20
2022-12-11T08:17:57.844Z,90.36
2022-12-11T08:22:59.552Z,89.95
2022-12-11T08:28:01.287Z,90.44
2022-12-11T08:33:03.001Z,90.80
2022-12-11T08:38:04.730Z,90.56
2022-12-11T08:43:06.395Z,90.38
2022-12-11T08:48:08.091Z,90.55
2022-12-11T08:53:09.747Z,89.22
2022-12-11T08:58:11.417Z,87.34
2022-12-11T09:03:13.192Z,86.59
2022-12-11T09:08:15.121Z,86.04
2022-12-11T09:13:16.827Z,87.65
2022-12-11T09:18:18.497Z,88.40
2022-12-11T09:23:20.164Z,88.08
2022-12-11T09:28:22.388Z,88.10
2022-12-11T09:33:24.163Z,86.34
2022-12-11T09:38:26.639Z,87.15
2022-12-11T09:43:52.326Z,87.07
2022-12-11T09:48:54.197Z,87.35
2022-12-11T09:53:59.871Z,86.63
2022-12-11T09:59:23.944Z,85.86
2022-12-11T10:04:47.299Z,84.04
2022-12-11T10:09:56.975Z,84.40
2022-12-11T10:15:08.787Z,84.87
2022-12-11T10:20:17.218Z,83.45
2022-12-11T10:25:27.330Z,83.68
2022-12-11T10:30:37.161Z,83.37
2022-12-11T10:35:58.205Z,83.52
2022-12-11T10:41:10.331Z,82.80
2022-12-11T10:46:32.951Z,84.30
2022-12-11T10:51:36.935Z,84.42
2022-12-11T10:56:38.748Z,84.15
2022-12-11T11:01:46.417Z,84.22
2022-12-11T11:06:49.846Z,83.66
2022-12-11T11:11:51.602Z,83.57
2022-12-11T11:16:57.234Z,84.25
2022-12-11T11:22:05.854Z,83.51
2022-12-11T11:27:28.176Z,81.37
2022-12-11T11:32:38.594Z,79.91
2022-12-11T11:37:44.524Z,79.73
2022-12-11T11:42:58.485Z,79.83
2022-12-11T11:48:11.522Z,79.55
2022-12-11T11:53:37.433Z,80.11
2022-12-11T11:58:47.008Z,78.62
2022-12-11T12:03:50.392Z,78.46
2022-12-11T12:09:03.248Z,80.36
2022-12-11T12:20:00.841Z,80.79
2022-12-11T12:25:35.665Z,80.61
2022-12-11T12:31:14.818Z,80.17
2022-12-11T12:36:39.203Z,77.12
2022-12-11T12:41:49.920Z,75.92
2022-12-11T12:47:00.170Z,75.70
2022-12-11T12:52:03.617Z,76.01
2022-12-11T12:57:05.831Z,72.54
2022-12-11T13:02:16.485Z,66.85
2022-12-11T13:07:27.341Z,66.70
2022-12-11T13:12:40.678Z,71.36
2022-12-11T13:17:42.370Z,71.17
2022-12-11T13:23:10.658Z,71.46
2022-12-11T13:28:47.311Z,74.19
2022-12-11T13:33:52.129Z,76.54
2022-12-11T13:38:59.405Z,78.06
2022-12-11T13:44:01.816Z,79.38
2022-12-11T13:49:07.203Z,80.56
2022-12-11T13:54:17.281Z,81.35
2022-12-11T13:59:53.405Z,81.78
2022-12-11T14:04:59.320Z,82.73
2022-12-11T14:10:06.301Z,82.64
2022-12-11T14:15:14.803Z,82.38
2022-12-11T14:20:20.630Z,82.79
2022-12-11T14:25:27.486Z,83.62
2022-12-11T14:30:33.116Z,84.85
2022-12-11T14:35:41.681Z,85.82
2022-12-11T14:40:47.204Z,87.05
2022-12-11T14:45:54.293Z,88.38
2022-12-11T14:51:01.233Z,89.64
2022-12-11T14:56:09.121Z,91.07
2022-12-11T15:01:23.051Z,91.55
2022-12-11T15:06:28.527Z,92.77
2022-12-11T15:11:32.017Z,93.60
2022-12-11T15:16:37.616Z,93.56
2022-12-11T15:21:39.360Z,93.58
2022-12-11T15:26:50.006Z,93.67
2022-12-11T15:32:01.995Z,93.41
2022-12-11T15:37:03.744Z,93.37
2022-12-11T15:42:06.591Z,92.97
2022-12-11T15:47:15.794Z,92.59
2022-12-11T15:52:17.524Z,93.45
2022-12-11T15:57:22.984Z,93.21
2022-12-11T16:02:26.780Z,93.07
2022-12-11T16:07:30.846Z,93.03
2022-12-11T16:12:32.622Z,92.80
2022-12-11T16:17:34.405Z,92.44
2022-12-11T16:22:36.286Z,92.12
2022-12-11T16:27:37.990Z,91.76
2022-12-11T16:32:39.716Z,91.99
2022-12-11T16:37:41.402Z,91.74
2022-12-11T16:42:43.288Z,92.15
2022-12-11T16:47:45.100Z,91.94
2022-12-11T16:52:47.423Z,92.13
2022-12-11T16:57:49.286Z,92.26
2022-12-11T17:02:51.168Z,92.38
2022-12-11T17:07:52.902Z,92.30
2022-12-11T17:12:54.952Z,92.38
2022-12-11T17:17:56.608Z,92.75
2022-12-11T17:22:58.257Z,93.15
2022-12-11T17:28:00.085Z,93.05
2022-12-11T17:33:02.948Z,93.77
2022-12-11T17:38:05.017Z,93.75
2022-12-11T17:43:09.314Z,93.99
2022-12-11T17:48:12.041Z,93.69
2022-12-11T17:53:15.516Z,93.70
2022-12-11T17:58:19.840Z,94.14
2022-12-11T18:03:22.013Z,93.68
2022-12-11T18:08:27.219Z,93.35
2022-12-11T18:13:29.163Z,94.26
2022-12-11T18:18:31.195Z,94.31
2022-12-11T18:23:32.926Z,95.24
2022-12-11T18:28:34.627Z,94.13
2022-12-11T18:33:38.519Z,92.75
2022-12-11T18:38:40.620Z,92.17
2022-12-11T18:43:42.427Z,92.51
2022-12-11T18:48:45.325Z,92.69
2022-12-11T18:53:47.029Z,93.05
2022-12-11T18:58:49.095Z,93.86
2022-12-11T19:04:00.466Z,93.67
2022-12-11T19:09:07.048Z,93.71
2022-12-11T19:14:10.089Z,93.23
2022-12-11T19:19:18.569Z,93.11
2022-12-11T19:24:22.319Z,93.41
2022-12-11T19:29:27.923Z,93.77
2022-12-11T19:34:29.747Z,93.52
2022-12-11T19:39:31.477Z,93.76
2022-12-11T19:44:33.170Z,93.76
2022-12-11T19:49:34.858Z,93.22
2022-12-11T19:54:36.873Z,93.86
2022-12-11T19:59:40.404Z,93.99
2022-12-11T20:04:43.047Z,94.54
2022-12-11T20:09:45.163Z,94.63
2022-12-11T20:14:47.744Z,94.55
2022-12-11T20:19:49.420Z,94.34
2022-12-11T20:24:51.289Z,94.58
2022-12-11T20:29:52.996Z,95.44
2022-12-11T20:34:56.461Z,94.11
2022-12-11T20:39:59.510Z,94.36
2022-12-11T20:45:01.213Z,94.56
2022-12-11T20:50:03.660Z,95.45
2022-12-11T20:55:06.333Z,96.73
2022-12-11T21:00:08.815Z,96.92
2022-12-11T21:05:11.493Z,96.88
2022-12-11T21:10:13.654Z,96.68
2022-12-11T21:15:15.474Z,95.80
2022-12-11T21:20:17.115Z,95.83
2022-12-11T21:25:19.220Z,96.48
2022-12-11T21:30:20.896Z,96.22
2022-12-11T21:35:22.560Z,96.52
2022-12-11T21:40:24.286Z,96.31
2022-12-11T21:50:47.626Z,97.07
2022-12-11T21:55:49.292Z,96.59
2022-12-11T22:00:50.991Z,96.93
2022-12-11T22:05:52.716Z,97.00
2022-12-11T22:10:56.641Z,96.86
2022-12-11T22:15:58.330Z,96.79
2022-12-11T22:21:00.076Z,96.69
2022-12-11T22:26:01.757Z,96.47
2022-12-11T22:31:03.474Z,97.05
2022-12-11T22:36:05.480Z,96.63
2022-12-11T22:41:21.991Z,96.00
2022-12-11T22:46:27.388Z,96.26
2022-12-11T22:51:29.127Z,96.30
2022-12-11T22:56:31.139Z,96.46
2022-12-11T23:01:33.032Z,97.31
2022-12-11T23:06:35.778Z,97.91
2022-12-11T23:11:40.169Z,98.04
2022-12-11T23:16:42.583Z,97.78
2022-12-11T23:21:45.012Z,97.19
2022-12-11T23:26:48.102Z,97.53
2022-12-11T23:31:49.764Z,97.93
2022-12-11T23:36:51.494Z,98.45
2022-12-11T23:41:53.142Z,98.77
2022-12-11T23:46:54.811Z,99.66
2022-12-11T23:51:56.769Z,99.55
2022-12-11T23:56:58.440Z,99.33
